Moffat, Colorado
Current Conditions -  °F | °C
As of 8:33 AM on Monday 22 Dec 2014 (Local Time) from K04V Reporting Station
Light Snow Light Snow  
Wind Chill: 25°   Ceiling: 2500
Heat Index: 30°   Visibility: 5mi
Dew Point: 28°   Wind: 5mph
Humidity: 93%   Direction: 290°WNW
Pressure: 29.78"   Gusts: NA
Location:  38°N, 105.91°W
Report Text: K04V 221533Z AUTO 29004KT 5SM -SN SCT017 OVC025 M01/M02 A2978 RMK AO2
Loading
Personal Weather Stations






























Interactive Weather Map New forecast layout! Learn more

10-Day Weather Forecast

Advertisements
Track Severe Weather on mobile